Time;durP1;ratioP1;P1;durP2;ratioP2;P2;SDS_P1;SDS_P2;PMS_P1;PMS_P2;Temp;Humidity;BMP_temperature;BMP_pressure;BME280_temperature;BME280_humidity;BME280_pressure;Samples;Min_cycle;Max_cycle;Signal;HPM_P1;HPM_P2
2023/11/29 00:00:07;;;;;;;8.38;4.60;;;;;;;-4.80;64.60;99772.28;4976014;28;20073;-70
2023/11/29 00:02:42;;;;;;;8.73;5.05;;;;;;;-5.28;64.07;99691.13;4991781;28;20039;-71
2023/11/29 00:05:10;;;;;;;7.30;4.15;;;;;;;-4.96;64.63;99767.22;4977888;28;20386;-72
2023/11/29 00:07:45;;;;;;;8.07;4.30;;;;;;;-5.45;64.51;99667.41;4960524;28;20042;-70
2023/11/29 00:10:14;;;;;;;10.48;4.70;;;;;;;-4.88;64.10;99761.75;4988040;28;20046;-71
2023/11/29 00:12:40;;;;;;;8.55;4.40;;;;;;;-5.00;64.47;99749.28;4960227;28;20126;-71
2023/11/29 00:15:11;;;;;;;8.40;4.63;;;;;;;-4.93;64.49;99754.69;4969753;28;20049;-69
2023/11/29 00:17:40;;;;;;;8.35;4.47;;;;;;;-4.88;64.15;99776.97;4957454;28;20042;-71
2023/11/29 00:20:06;;;;;;;10.25;4.70;;;;;;;-5.32;64.01;99700.25;4979130;28;20421;-72
2023/11/29 00:22:32;;;;;;;10.23;4.60;;;;;;;-5.02;64.15;99763.56;4958914;28;20049;-72
2023/11/29 00:24:59;;;;;;;9.00;4.43;;;;;;;-4.97;64.50;99763.81;4952198;28;20101;-72
2023/11/29 00:27:30;;;;;;;9.02;4.70;;;;;;;-4.86;64.59;99764.38;4960487;28;20046;-71
2023/11/29 00:29:56;;;;;;;10.00;4.90;;;;;;;-5.33;63.81;99697.63;4967706;28;20039;-71
2023/11/29 00:32:25;;;;;;;8.80;4.72;;;;;;;-4.77;63.95;99799.53;4962564;28;20325;-72
2023/11/29 00:34:55;;;;;;;12.48;5.60;;;;;;;-5.02;64.11;99750.88;4988804;28;20039;-71
2023/11/29 00:37:26;;;;;;;9.40;4.72;;;;;;;-4.87;64.57;99755.88;4965310;28;20061;-71
2023/11/29 00:39:52;;;;;;;11.95;5.38;;;;;;;-4.53;64.52;99784.69;4963206;28;20058;-73
2023/11/29 00:42:26;;;;;;;7.95;4.45;;;;;;;-4.51;64.38;99750.06;4966057;28;20114;-73
2023/11/29 00:44:52;;;;;;;6.68;3.97;;;;;;;-4.67;64.49;99714.53;4975732;28;20047;-70
2023/11/29 00:47:19;;;;;;;7.88;4.43;;;;;;;-4.16;64.50;99771.28;4995507;28;20042;-71
2023/11/29 00:49:46;;;;;;;7.50;4.20;;;;;;;-4.13;63.98;99780.75;4962202;28;20584;-70
2023/11/29 00:52:13;;;;;;;7.68;4.10;;;;;;;-4.89;63.63;99694.00;4950572;28;20498;-70
2023/11/29 00:54:39;;;;;;;11.90;5.63;;;;;;;-4.48;63.80;99774.75;4961079;28;20038;-73
2023/11/29 00:57:06;;;;;;;14.85;8.52;;;;;;;-5.05;63.53;99717.69;4962457;28;20138;-70
2023/11/29 00:59:35;;;;;;;15.70;8.55;;;;;;;-5.02;63.83;99722.09;4981606;28;20042;-70
2023/11/29 01:02:01;;;;;;;14.98;8.07;;;;;;;-4.96;63.82;99727.47;4979951;28;20062;-70
2023/11/29 01:04:27;;;;;;;13.30;6.85;;;;;;;-5.65;63.55;99618.19;4983398;28;20047;-71
2023/11/29 01:06:55;;;;;;;11.45;6.25;;;;;;;-4.70;64.04;99771.09;4963312;28;20149;-69
2023/11/29 01:09:21;;;;;;;13.55;7.13;;;;;;;-4.91;63.19;99730.25;4943411;28;20039;-70
2023/11/29 01:11:49;;;;;;;12.57;6.07;;;;;;;-4.46;63.91;99799.47;4964583;28;20476;-69
2023/11/29 01:14:16;;;;;;;10.35;5.57;;;;;;;-4.41;63.79;99807.31;4960436;28;20066;-70
2023/11/29 01:16:42;;;;;;;11.07;5.43;;;;;;;-4.41;63.83;99798.00;4964463;28;20041;-70
2023/11/29 01:19:08;;;;;;;8.32;4.55;;;;;;;-4.52;63.85;99761.03;4996000;28;20062;-73
2023/11/29 01:21:38;;;;;;;9.57;4.35;;;;;;;-4.32;64.02;99787.47;4985160;28;20045;-71
2023/11/29 01:24:07;;;;;;;7.03;3.60;;;;;;;-4.67;63.21;99748.41;4963987;28;20046;-70
2023/11/29 01:26:34;;;;;;;8.02;3.92;;;;;;;-4.48;63.65;99774.75;4963456;28;20042;-69
2023/11/29 01:29:01;;;;;;;8.20;4.68;;;;;;;-4.57;63.20;99788.75;4950691;28;20064;-72
2023/11/29 01:31:30;;;;;;;8.13;4.70;;;;;;;-4.34;63.73;99819.53;4972425;28;20182;-72
2023/11/29 01:34:00;;;;;;;7.40;4.63;;;;;;;-4.55;63.41;99802.41;4969503;28;20524;-74
2023/11/29 01:36:26;;;;;;;8.20;5.28;;;;;;;-4.34;63.77;99833.91;4986167;28;20034;-72
2023/11/29 01:38:53;;;;;;;7.10;3.70;;;;;;;-4.55;63.38;99786.28;4971173;28;20035;-73
2023/11/29 01:41:19;;;;;;;9.52;4.55;;;;;;;-4.44;63.39;99818.19;4977621;28;20034;-73
2023/11/29 01:43:48;;;;;;;7.97;4.40;;;;;;;-4.78;64.05;99747.88;4961781;28;20058;-73
2023/11/29 01:46:15;;;;;;;6.78;3.95;;;;;;;-4.22;63.94;99811.66;4980723;28;20038;-72
2023/11/29 01:48:42;;;;;;;9.15;4.65;;;;;;;-4.20;63.34;99804.13;4982082;28;20137;-72
2023/11/29 01:51:08;;;;;;;6.57;3.42;;;;;;;-4.21;63.62;99789.66;4959807;28;20512;-71
2023/11/29 01:53:35;;;;;;;9.05;4.30;;;;;;;-4.07;63.67;99805.59;4947574;28;20038;-73
2023/11/29 01:56:03;;;;;;;7.10;3.75;;;;;;;-4.06;63.05;99794.63;4979797;28;20046;-72
2023/11/29 01:58:30;;;;;;;7.50;4.25;;;;;;;-3.84;63.60;99809.28;4963433;28;20038;-74
2023/11/29 02:00:57;;;;;;;7.30;4.43;;;;;;;-3.72;63.50;99819.19;4978785;28;20039;-72
2023/11/29 02:03:24;;;;;;;8.52;4.32;;;;;;;-3.75;63.34;99803.78;4981252;28;20046;-73
2023/11/29 02:05:50;;;;;;;8.77;4.57;;;;;;;-3.95;62.60;99794.38;4979621;28;20095;-74
2023/11/29 02:08:18;;;;;;;7.47;4.30;;;;;;;-4.06;62.95;99818.38;4960762;28;20042;-73
2023/11/29 02:10:53;;;;;;;8.65;4.30;;;;;;;-4.22;63.38;99775.19;4965733;28;20636;-71
2023/11/29 02:13:21;;;;;;;10.68;4.82;;;;;;;-3.94;63.38;99826.63;4969799;28;20043;-73
2023/11/29 02:15:47;;;;;;;8.23;4.45;;;;;;;-4.03;63.08;99813.44;4976078;28;20412;-72
2023/11/29 02:18:13;;;;;;;8.43;4.50;;;;;;;-3.96;63.23;99810.44;4992240;28;20073;-72
2023/11/29 02:20:39;;;;;;;8.32;4.35;;;;;;;-3.80;63.01;99822.22;4960295;28;20412;-72
2023/11/29 02:23:38;;;;;;;7.25;4.20;;;;;;;-3.82;62.98;99800.94;4974700;28;20039;-71
2023/11/29 02:26:04;;;;;;;9.38;4.50;;;;;;;-3.73;62.75;99809.78;4967376;28;20045;-73
2023/11/29 02:28:34;;;;;;;10.48;4.85;;;;;;;-3.80;62.88;99819.69;4973487;28;20039;-72
2023/11/29 02:31:00;;;;;;;7.88;4.57;;;;;;;-3.74;62.63;99810.59;4974624;28;20039;-71
2023/11/29 02:33:26;;;;;;;7.68;4.20;;;;;;;-3.80;62.99;99813.72;4989684;28;20047;-70
2023/11/29 02:35:55;;;;;;;8.43;5.05;;;;;;;-4.16;62.99;99766.22;4991598;28;20066;-70
2023/11/29 02:38:21;;;;;;;11.35;5.53;;;;;;;-3.73;63.19;99831.03;4973409;28;20081;-72
2023/11/29 02:40:47;;;;;;;8.80;5.00;;;;;;;-3.73;62.78;99817.44;4974668;28;20034;-70
2023/11/29 02:43:13;;;;;;;7.20;4.32;;;;;;;-3.80;62.43;99831.53;4977809;28;20065;-72
2023/11/29 02:45:40;;;;;;;8.02;4.68;;;;;;;-4.19;62.76;99780.44;4980168;28;20121;-71
2023/11/29 02:48:06;;;;;;;9.13;5.25;;;;;;;-4.03;62.92;99800.75;4994667;28;20129;-71
2023/11/29 02:50:33;;;;;;;8.13;4.93;;;;;;;-3.74;62.93;99836.91;5003314;28;20034;-70
2023/11/29 02:52:59;;;;;;;9.07;4.78;;;;;;;-3.78;62.75;99807.94;4981895;28;20044;-70
2023/11/29 02:55:25;;;;;;;8.98;5.10;;;;;;;-3.89;62.75;99810.75;4982157;28;20089;-70
2023/11/29 02:57:58;;;;;;;9.32;5.05;;;;;;;-3.98;62.34;99789.13;4975652;28;20046;-70
2023/11/29 03:00:24;;;;;;;8.45;4.53;;;;;;;-3.78;62.67;99824.84;4990002;28;20148;-71
2023/11/29 03:02:50;;;;;;;9.13;5.00;;;;;;;-4.03;61.95;99785.50;4966006;28;20069;-72
2023/11/29 03:05:16;;;;;;;9.45;4.40;;;;;;;-4.02;62.09;99791.47;4991076;28;20571;-70
2023/11/29 03:07:43;;;;;;;8.02;4.38;;;;;;;-4.33;61.56;99750.16;4974556;28;20049;-69
2023/11/29 03:10:09;;;;;;;9.80;5.03;;;;;;;-3.96;62.47;99796.81;4977689;28;20207;-68
2023/11/29 03:12:35;;;;;;;10.15;5.40;;;;;;;-3.96;62.57;99769.75;5010757;28;20042;-69
2023/11/29 03:15:05;;;;;;;9.35;5.13;;;;;;;-3.96;62.09;99779.91;4981242;28;20428;-68
2023/11/29 03:17:31;;;;;;;10.88;4.97;;;;;;;-3.65;62.61;99824.66;4993224;28;20562;-69
2023/11/29 03:20:00;;;;;;;7.85;4.55;;;;;;;-3.80;62.13;99819.69;5012762;28;20041;-68
2023/11/29 03:22:26;;;;;;;9.85;4.80;;;;;;;-4.16;62.30;99786.53;4980150;28;20081;-71
2023/11/29 03:24:55;;;;;;;8.10;4.88;;;;;;;-4.15;62.09;99797.59;4997031;28;20038;-70
2023/11/29 03:27:21;;;;;;;8.18;4.55;;;;;;;-4.14;61.74;99830.72;4979721;28;20030;-69
2023/11/29 03:29:46;;;;;;;9.85;5.18;;;;;;;-4.23;61.98;99817.56;5008871;28;20055;-72
2023/11/29 03:32:13;;;;;;;8.63;4.70;;;;;;;-4.13;62.65;99839.22;4980696;28;20053;-69
2023/11/29 03:34:39;;;;;;;9.38;5.20;;;;;;;-4.22;62.24;99820.94;4981215;28;20046;-70
2023/11/29 03:37:08;;;;;;;10.02;5.18;;;;;;;-4.33;61.93;99816.22;4987839;28;20125;-68
2023/11/29 03:39:35;;;;;;;9.32;4.78;;;;;;;-4.49;61.78;99790.78;4995758;28;20038;-71
2023/11/29 03:42:04;;;;;;;9.45;4.82;;;;;;;-4.17;62.27;99839.84;4994003;28;20129;-69
2023/11/29 03:44:30;;;;;;;10.10;4.90;;;;;;;-4.46;62.20;99796.91;4982885;28;20080;-73
2023/11/29 03:46:59;;;;;;;12.85;5.63;;;;;;;-4.15;62.12;99841.66;4959548;28;20416;-69
2023/11/29 03:49:25;;;;;;;9.15;5.30;;;;;;;-4.26;61.93;99838.56;4996903;28;20113;-72
2023/11/29 03:51:54;;;;;;;10.07;5.65;;;;;;;-4.49;62.40;99801.84;5006986;28;20037;-70
2023/11/29 03:54:29;;;;;;;12.45;5.40;;;;;;;-4.55;62.10;99804.06;4964029;28;20052;-71
2023/11/29 03:56:55;;;;;;;12.82;5.40;;;;;;;-4.35;61.81;99860.09;5011895;28;20100;-70
2023/11/29 03:59:21;;;;;;;9.70;5.38;;;;;;;-4.72;61.89;99775.22;5014980;28;20102;-68
2023/11/29 04:01:47;;;;;;;12.07;5.80;;;;;;;-4.29;62.28;99840.09;5005582;28;20045;-71
2023/11/29 04:04:16;;;;;;;13.77;6.35;;;;;;;-4.88;61.56;99748.19;5016468;28;20038;-68
2023/11/29 04:06:42;;;;;;;11.48;5.93;;;;;;;-4.79;61.65;99766.44;5018750;28;20038;-69
2023/11/29 04:09:11;;;;;;;13.35;7.05;;;;;;;-4.28;61.94;99839.31;5009170;28;20141;-69
2023/11/29 04:11:36;;;;;;;11.32;5.68;;;;;;;-4.21;61.79;99849.00;5010691;28;20416;-69
2023/11/29 04:14:11;;;;;;;14.02;6.70;;;;;;;-4.19;61.64;99847.38;4974084;28;20477;-68
2023/11/29 04:16:43;;;;;;;12.93;6.90;;;;;;;-4.46;61.18;99801.09;5000166;28;20215;-69
2023/11/29 04:19:10;;;;;;;12.32;6.15;;;;;;;-4.18;61.70;99838.09;4981836;28;20053;-67
2023/11/29 04:21:36;;;;;;;12.25;6.93;;;;;;;-4.06;61.76;99858.19;5000615;28;20053;-71
2023/11/29 04:24:06;;;;;;;14.57;6.53;;;;;;;-4.03;61.39;99863.44;4976908;28;20101;-74
2023/11/29 04:26:38;;;;;;;14.63;7.75;;;;;;;-4.03;61.66;99861.75;4973751;28;20037;-70
2023/11/29 04:29:05;;;;;;;13.00;6.65;;;;;;;-4.42;61.10;99834.41;5016657;28;20089;-70
2023/11/29 04:31:32;;;;;;;14.98;7.22;;;;;;;-4.32;61.19;99866.25;5017702;28;20069;-71
2023/11/29 04:33:59;;;;;;;16.02;7.40;;;;;;;-4.51;61.44;99833.91;4981157;28;21464;-71
2023/11/29 04:36:25;;;;;;;12.52;6.63;;;;;;;-4.65;61.04;99850.97;4966175;28;20033;-70
2023/11/29 04:38:54;;;;;;;15.05;7.25;;;;;;;-4.74;61.00;99879.28;5000437;28;20476;-72
2023/11/29 04:41:22;;;;;;;14.75;7.30;;;;;;;-4.81;61.40;99883.94;4984477;28;20048;-69
2023/11/29 04:43:50;;;;;;;13.93;6.70;;;;;;;-5.17;60.72;99842.28;4998123;28;20064;-70
2023/11/29 04:46:16;;;;;;;14.15;7.07;;;;;;;-5.15;61.23;99888.91;4981236;28;20045;-71
2023/11/29 04:48:44;;;;;;;14.13;7.15;;;;;;;-5.22;61.00;99884.31;4999956;28;20045;-69
2023/11/29 04:51:13;;;;;;;15.25;7.07;;;;;;;-5.87;61.35;99791.91;5006329;28;20566;-70
2023/11/29 04:53:40;;;;;;;13.63;7.00;;;;;;;-5.99;60.79;99774.34;4999387;28;20049;-71
2023/11/29 04:56:06;;;;;;;14.68;7.68;;;;;;;-6.00;60.93;99800.53;4980762;28;21257;-69
2023/11/29 04:58:39;;;;;;;15.55;7.40;;;;;;;-5.49;61.30;99891.22;4983932;28;20042;-69
2023/11/29 05:01:10;;;;;;;17.08;7.68;;;;;;;-5.66;61.53;99867.44;4984928;28;20042;-69
2023/11/29 05:03:37;;;;;;;14.63;6.57;;;;;;;-6.21;61.43;99790.00;4998697;28;20515;-69
2023/11/29 05:06:09;;;;;;;16.63;7.90;;;;;;;-5.62;61.62;99897.25;4985122;28;20034;-70
2023/11/29 05:08:36;;;;;;;16.10;7.18;;;;;;;-5.84;60.90;99879.94;4995625;28;20073;-70
2023/11/29 05:11:07;;;;;;;16.67;7.80;;;;;;;-5.93;60.99;99906.47;4994410;28;20060;-70
2023/11/29 05:13:33;;;;;;;15.57;7.80;;;;;;;-5.91;62.02;99898.97;4994070;28;20038;-69
2023/11/29 05:16:00;;;;;;;14.57;7.50;;;;;;;-6.01;61.56;99894.19;4996361;28;20053;-70
2023/11/29 05:18:26;;;;;;;19.65;9.02;;;;;;;-6.44;61.52;99840.19;5004434;28;20582;-69
2023/11/29 05:20:53;;;;;;;19.08;7.72;;;;;;;-6.16;61.62;99887.44;4995566;28;20566;-68
2023/11/29 05:23:19;;;;;;;18.92;8.60;;;;;;;-6.03;62.40;99905.88;4996839;28;20049;-69
2023/11/29 05:25:46;;;;;;;18.00;8.32;;;;;;;-6.24;61.81;99875.94;4996972;28;20056;-71
2023/11/29 05:28:13;;;;;;;16.35;8.25;;;;;;;-5.97;61.73;99913.81;4993853;28;20034;-69
2023/11/29 05:30:39;;;;;;;17.05;7.97;;;;;;;-6.22;61.86;99879.47;4999830;28;20061;-71
2023/11/29 05:33:07;;;;;;;18.83;8.45;;;;;;;-6.07;62.50;99907.38;4989742;28;20084;-70
2023/11/29 05:35:36;;;;;;;18.15;8.20;;;;;;;-6.15;61.58;99899.31;4996755;28;20052;-72
2023/11/29 05:38:02;;;;;;;15.55;8.07;;;;;;;-6.02;62.51;99877.22;4996726;28;20126;-70
2023/11/29 05:40:28;;;;;;;15.38;7.35;;;;;;;-6.00;62.27;99857.91;5008131;28;20054;-71
2023/11/29 05:42:55;;;;;;;18.38;8.25;;;;;;;-5.59;62.31;99864.47;4987275;28;20182;-70
2023/11/29 05:45:21;;;;;;;18.10;8.15;;;;;;;-5.14;62.60;99865.28;4996925;28;20042;-67
2023/11/29 05:47:47;;;;;;;17.67;8.13;;;;;;;-4.95;61.85;99858.66;4995921;28;20034;-67
2023/11/29 05:50:14;;;;;;;17.45;8.00;;;;;;;-4.49;62.06;99870.44;4994379;28;20042;-66
2023/11/29 05:52:40;;;;;;;16.13;8.02;;;;;;;-4.67;61.29;99801.75;4985605;28;20097;-70
2023/11/29 05:55:07;;;;;;;18.50;7.57;;;;;;;-4.10;60.72;99840.25;4998012;28;20151;-69
2023/11/29 05:57:34;;;;;;;20.08;9.77;;;;;;;-4.38;60.93;99841.38;4977512;28;20075;-69
2023/11/29 06:00:14;;;;;;;23.45;9.25;;;;;;;-4.94;61.38;99791.88;4996043;28;20128;-69
2023/11/29 06:02:41;;;;;;;26.83;8.95;;;;;;;-4.67;61.13;99860.16;4997424;28;20504;-68
2023/11/29 06:05:09;;;;;;;29.67;10.35;;;;;;;-4.76;61.38;99872.38;4999160;28;20034;-69
2023/11/29 06:07:37;;;;;;;20.27;9.73;;;;;;;-4.75;61.98;99875.00;4964823;28;20101;-70
2023/11/29 06:10:07;;;;;;;22.55;10.30;;;;;;;-5.33;61.60;99773.72;4982821;28;20052;-70
2023/11/29 06:12:33;;;;;;;19.00;8.73;;;;;;;-5.51;61.04;99777.00;4985564;28;20037;-70
2023/11/29 06:15:04;;;;;;;22.73;10.07;;;;;;;-4.95;61.24;99852.72;5009426;28;20052;-69
2023/11/29 06:17:32;;;;;;;18.55;8.23;;;;;;;-5.15;60.46;99837.28;4993696;28;20033;-70
2023/11/29 06:20:04;;;;;;;21.77;9.30;;;;;;;-4.72;62.10;99882.78;4994536;28;20037;-70
2023/11/29 06:22:32;;;;;;;18.77;8.68;;;;;;;-4.65;61.83;99866.19;4975045;28;20049;-70
2023/11/29 06:25:00;;;;;;;17.17;9.35;;;;;;;-4.77;61.13;99852.88;4994882;28;20069;-69
2023/11/29 06:27:31;;;;;;;16.92;8.82;;;;;;;-4.55;62.01;99881.16;4980661;28;20069;-68
2023/11/29 06:29:57;;;;;;;18.33;8.70;;;;;;;-5.01;61.19;99803.38;4980880;28;20077;-69
2023/11/29 06:32:24;;;;;;;17.20;8.70;;;;;;;-4.73;61.05;99857.28;4993915;28;20038;-69
2023/11/29 06:34:55;;;;;;;19.23;9.23;;;;;;;-4.77;61.33;99861.34;5012785;28;20034;-69
2023/11/29 06:37:23;;;;;;;16.52;8.38;;;;;;;-4.89;61.15;99851.41;4993193;28;20093;-67
2023/11/29 06:39:51;;;;;;;16.67;9.10;;;;;;;-4.67;61.72;99869.47;4988598;28;20045;-70
2023/11/29 06:42:17;;;;;;;16.85;8.70;;;;;;;-4.65;61.43;99873.81;4999024;28;20071;-71
2023/11/29 06:44:48;;;;;;;19.00;9.10;;;;;;;-4.58;61.87;99877.56;4968536;28;20065;-68
2023/11/29 06:47:17;;;;;;;20.52;9.90;;;;;;;-4.88;60.74;99843.00;4996175;28;20034;-69
2023/11/29 06:49:44;;;;;;;19.42;9.68;;;;;;;-5.05;61.36;99815.81;4978251;28;20045;-71
2023/11/29 06:52:12;;;;;;;18.08;8.95;;;;;;;-4.47;61.83;99891.72;4996151;28;20052;-69
2023/11/29 06:54:38;;;;;;;16.67;9.27;;;;;;;-4.56;60.93;99875.97;4993518;28;20045;-70
2023/11/29 06:57:04;;;;;;;17.35;9.15;;;;;;;-4.57;60.93;99885.28;4992390;28;20493;-68
2023/11/29 06:59:31;;;;;;;14.55;8.15;;;;;;;-4.63;60.85;99890.03;4961628;28;20052;-69
2023/11/29 07:01:57;;;;;;;16.42;8.85;;;;;;;-4.70;61.00;99873.59;4978323;28;20132;-70
2023/11/29 07:04:23;;;;;;;18.65;8.43;;;;;;;-4.79;61.15;99892.53;4976323;28;20496;-70
2023/11/29 07:06:49;;;;;;;15.80;7.90;;;;;;;-4.69;60.98;99897.31;4971613;28;20042;-71
2023/11/29 07:09:16;;;;;;;18.42;8.48;;;;;;;-4.77;61.38;99893.50;4995279;28;20077;-72
2023/11/29 07:11:42;;;;;;;18.75;9.00;;;;;;;-4.66;61.79;99883.91;4994223;28;20052;-68
2023/11/29 07:14:08;;;;;;;17.70;8.52;;;;;;;-4.71;61.57;99876.03;4981550;28;20049;-68
2023/11/29 07:16:35;;;;;;;17.17;8.57;;;;;;;-4.73;61.36;99860.72;5013659;28;20037;-67
2023/11/29 07:19:01;;;;;;;15.88;7.40;;;;;;;-4.50;60.96;99885.56;4980400;28;20052;-68
2023/11/29 07:21:29;;;;;;;20.05;8.00;;;;;;;-4.87;61.55;99806.66;5007188;28;20049;-69
2023/11/29 07:23:56;;;;;;;18.80;8.27;;;;;;;-4.63;60.92;99867.16;4964196;28;20079;-69
2023/11/29 07:26:22;;;;;;;19.48;8.45;;;;;;;-4.48;61.02;99894.16;5011586;28;20088;-72
2023/11/29 07:28:48;;;;;;;19.77;8.73;;;;;;;-4.59;61.60;99861.44;4990242;28;20060;-76
2023/11/29 07:31:18;;;;;;;16.63;7.72;;;;;;;-4.10;61.73;99887.69;5003576;28;20105;-78
2023/11/29 07:33:53;;;;;;;18.55;8.48;;;;;;;-3.86;61.50;99884.66;5022953;28;20048;-78
2023/11/29 07:36:33;;;;;;;22.67;9.13;;;;;;;-3.77;61.27;99890.19;5020006;28;20109;-78
2023/11/29 07:39:03;;;;;;;19.98;8.60;;;;;;;-4.05;60.97;99845.53;5020763;28;20045;-76
2023/11/29 07:41:33;;;;;;;19.98;9.10;;;;;;;-4.22;60.22;99854.00;5020618;28;20049;-75
2023/11/29 07:43:59;;;;;;;21.48;9.82;;;;;;;-4.06;60.90;99876.00;5001277;28;20064;-77
2023/11/29 07:46:29;;;;;;;22.85;9.88;;;;;;;-4.01;60.99;99882.19;4992071;28;20038;-76
2023/11/29 07:48:55;;;;;;;17.05;9.57;;;;;;;-3.87;61.11;99882.91;5018684;28;20046;-76
2023/11/29 07:51:24;;;;;;;19.90;8.82;;;;;;;-3.81;60.79;99870.47;5002053;28;20046;-75
2023/11/29 07:54:00;;;;;;;17.70;8.82;;;;;;;-3.96;60.87;99856.19;5019345;28;20053;-78
2023/11/29 07:56:30;;;;;;;17.95;7.97;;;;;;;-3.85;61.04;99869.44;4986360;28;20042;-75
2023/11/29 07:58:56;;;;;;;20.08;9.60;;;;;;;-3.73;61.61;99871.72;4984444;28;20053;-75
2023/11/29 08:01:22;;;;;;;15.57;8.18;;;;;;;-3.71;60.60;99856.53;5020478;28;20067;-74
2023/11/29 08:03:50;;;;;;;20.80;9.35;;;;;;;-3.64;61.12;99839.09;5018501;28;20129;-73
2023/11/29 08:06:17;;;;;;;18.83;9.65;;;;;;;-3.29;61.65;99840.75;4986531;28;20101;-72
2023/11/29 08:08:51;;;;;;;25.08;9.95;;;;;;;-3.28;60.92;99850.13;4986638;28;20050;-77
2023/11/29 08:11:17;;;;;;;24.25;10.57;;;;;;;-3.51;60.25;99850.75;5027768;23;20059;-75
2023/11/29 08:13:44;;;;;;;21.45;10.05;;;;;;;-3.65;60.26;99831.41;4960980;28;20062;-78
2023/11/29 08:16:15;;;;;;;29.58;11.10;;;;;;;-3.80;60.16;99795.91;4966785;28;20118;-79
2023/11/29 08:18:41;;;;;;;22.27;10.88;;;;;;;-4.03;60.08;99802.44;4949135;28;20049;-78
2023/11/29 08:21:08;;;;;;;17.55;8.70;;;;;;;-3.88;60.75;99818.44;4966493;28;20042;-80
2023/11/29 08:23:34;;;;;;;17.52;9.10;;;;;;;-3.92;59.86;99831.78;4974575;28;20053;-73
2023/11/29 08:26:05;;;;;;;17.70;8.85;;;;;;;-4.39;60.04;99767.63;4958954;28;20050;-71
2023/11/29 08:28:31;;;;;;;20.40;10.00;;;;;;;-4.36;61.03;99770.31;4954393;28;20121;-72
2023/11/29 08:30:58;;;;;;;21.55;10.23;;;;;;;-4.07;60.39;99820.84;4969359;28;20066;-72
2023/11/29 08:33:24;;;;;;;23.60;10.63;;;;;;;-4.41;60.82;99744.66;4970201;28;20050;-72
2023/11/29 08:35:50;;;;;;;23.30;10.32;;;;;;;-3.75;61.18;99835.16;4985941;28;20093;-71
2023/11/29 08:38:16;;;;;;;23.30;9.68;;;;;;;-4.08;60.69;99794.53;4972359;28;20098;-73
2023/11/29 08:40:43;;;;;;;19.40;9.32;;;;;;;-3.95;60.73;99832.50;4971778;28;20031;-72
2023/11/29 08:43:09;;;;;;;16.30;9.35;;;;;;;-3.95;61.39;99813.81;4987707;28;20086;-72
2023/11/29 08:45:35;;;;;;;20.55;10.32;;;;;;;-3.78;61.16;99819.75;4942833;28;20073;-73
2023/11/29 08:48:01;;;;;;;23.08;9.82;;;;;;;-3.65;61.06;99816.13;4963153;28;20023;-72
2023/11/29 08:50:27;;;;;;;24.30;11.20;;;;;;;-3.79;61.92;99749.34;4963376;28;20049;-73
2023/11/29 08:52:53;;;;;;;18.88;9.18;;;;;;;-3.68;60.89;99783.81;4991715;28;20042;-74
2023/11/29 08:55:21;;;;;;;20.63;10.82;;;;;;;-3.80;60.24;99806.09;4955631;28;20046;-73
2023/11/29 08:57:48;;;;;;;19.95;10.00;;;;;;;-4.20;59.92;99751.63;4962495;28;20047;-72
2023/11/29 09:00:15;;;;;;;22.50;10.35;;;;;;;-4.12;60.96;99763.03;4991126;28;20046;-73
2023/11/29 09:02:46;;;;;;;21.15;9.27;;;;;;;-3.76;60.51;99794.41;4958993;28;20042;-71
2023/11/29 09:05:17;;;;;;;22.60;10.90;;;;;;;-3.82;61.70;99757.72;4991519;28;20056;-73
2023/11/29 09:07:43;;;;;;;;;;;;;;;-3.56;61.20;99801.34;4961760;28;20057;-73
2023/11/29 09:10:13;;;;;;;21.75;8.73;;;;;;;-3.87;60.67;99759.16;4968691;28;19922;-73
2023/11/29 09:12:39;;;;;;;20.70;10.02;;;;;;;-3.54;61.95;99792.09;4933519;29;20307;-73
2023/11/29 09:15:13;;;;;;;21.20;9.85;;;;;;;-3.48;61.06;99806.78;4918490;29;20048;-74
2023/11/29 09:17:44;;;;;;;26.67;12.55;;;;;;;-3.86;60.95;99760.03;4939950;29;20391;-72
2023/11/29 09:20:15;;;;;;;26.67;12.48;;;;;;;-3.67;61.97;99772.84;4939232;29;20106;-77
2023/11/29 09:22:43;;;;;;;24.42;11.70;;;;;;;-3.52;61.20;99800.66;4972792;28;20023;-82
2023/11/29 09:25:13;;;;;;;29.17;13.27;;;;;;;-3.54;61.48;99792.09;4938198;29;20056;-78
2023/11/29 09:27:41;;;;;;;26.42;12.65;;;;;;;-3.60;61.30;99763.81;4957090;29;20067;-81
2023/11/29 09:30:14;;;;;;;27.65;12.68;;;;;;;-3.67;61.08;99762.66;4934831;29;20031;-79
2023/11/29 09:32:41;;;;;;;17.02;8.55;;;;;;;-3.55;61.02;99804.72;4959578;29;20050;-79
2023/11/29 09:35:12;;;;;;;21.92;11.02;;;;;;;-4.36;61.58;99662.72;4940728;29;20084;-81
2023/11/29 09:37:43;;;;;;;25.05;11.38;;;;;;;-3.53;61.53;99795.50;4937612;29;20031;-79
2023/11/29 09:40:16;;;;;;;20.73;10.07;;;;;;;-3.68;61.40;99745.66;4956108;29;20071;-79
2023/11/29 09:42:42;;;;;;;25.83;12.02;;;;;;;-3.75;61.57;99746.16;4942074;29;20043;-82
2023/11/29 09:45:21;;;;;;;25.33;12.15;;;;;;;-3.62;61.87;99750.16;4970868;28;20200;-80
2023/11/29 09:47:51;;;;;;;26.58;11.13;;;;;;;-3.30;61.89;99770.28;4942323;29;20043;-78
2023/11/29 09:50:21;;;;;;;24.48;10.93;;;;;;;-3.18;61.70;99779.34;4957304;29;20070;-78
2023/11/29 09:52:53;;;;;;;20.58;11.10;;;;;;;-3.19;62.51;99744.50;4971994;28;20110;-79
2023/11/29 09:58:17;;;;;;;23.27;11.25;;;;;;;-3.29;62.02;99733.84;4951834;29;20108;-80
2023/11/29 10:00:44;;;;;;;23.67;10.73;;;;;;;-3.04;62.09;99746.00;4955816;29;20051;-80
2023/11/29 10:03:14;;;;;;;22.17;10.15;;;;;;;-3.25;61.65;99711.13;4956652;29;20043;-81
2023/11/29 10:06:02;;;;;;;22.23;10.38;;;;;;;-2.98;61.49;99770.88;4953344;29;20031;-78
2023/11/29 10:08:28;;;;;;;22.05;9.45;;;;;;;-3.17;61.41;99759.84;4970976;28;20019;-82
2023/11/29 10:10:56;;;;;;;22.05;10.50;;;;;;;-3.47;62.07;99709.28;4970839;28;20035;-81
2023/11/29 10:13:22;;;;;;;22.83;11.10;;;;;;;-3.17;62.37;99739.47;4955775;29;20054;-82
2023/11/29 10:16:16;;;;;;;17.65;8.48;;;;;;;-3.12;61.76;99750.75;4957915;29;20054;-80
2023/11/29 10:18:46;;;;;;;18.13;9.32;;;;;;;-3.29;61.74;99731.28;4953336;29;20055;-82
2023/11/29 10:21:13;;;;;;;15.88;8.00;;;;;;;-3.46;61.65;99717.78;4964259;28;20062;-75
2023/11/29 10:23:44;;;;;;;21.95;9.43;;;;;;;-3.49;62.25;99711.75;4959120;29;20023;-82
2023/11/29 10:26:12;;;;;;;19.88;8.90;;;;;;;-3.52;62.84;99690.38;4958974;29;20046;-81
2023/11/29 10:28:38;;;;;;;19.95;9.70;;;;;;;-3.08;63.59;99734.81;4957936;29;20019;-82
2023/11/29 10:31:09;;;;;;;14.13;7.07;;;;;;;-2.96;63.28;99739.59;4957743;29;20032;-80
2023/11/29 10:33:40;;;;;;;19.05;8.80;;;;;;;-3.03;62.90;99735.00;4942053;29;20521;-82
2023/11/29 10:36:22;;;;;;;17.58;8.45;;;;;;;-3.30;63.28;99669.31;4955262;29;20044;-81
2023/11/29 10:39:00;;;;;;;18.45;9.15;;;;;;;-2.88;63.69;99722.09;4951433;29;20083;-78
2023/11/29 10:41:28;;;;;;;21.15;9.68;;;;;;;-3.12;63.66;99660.78;4940739;29;20044;-77
2023/11/29 10:44:19;;;;;;;20.02;8.88;;;;;;;-2.95;63.84;99670.03;4936493;29;20048;-79
2023/11/29 10:46:47;;;;;;;15.30;7.93;;;;;;;-2.77;63.12;99687.78;4951135;29;20043;-76
2023/11/29 10:49:21;;;;;;;17.58;8.63;;;;;;;-3.06;63.97;99620.28;4921127;29;20066;-78
2023/11/29 10:51:50;;;;;;;14.18;8.18;;;;;;;-2.42;64.02;99692.59;4956118;29;20047;-81
2023/11/29 10:54:55;;;;;;;14.23;7.75;;;;;;;-3.54;62.49;99580.03;4966714;28;20044;-77
2023/11/29 10:58:14;;;;;;;14.25;6.85;;;;;;;-3.18;62.78;99663.91;4918870;29;20083;-71
2023/11/29 11:00:46;;;;;;;16.42;8.05;;;;;;;-2.83;63.94;99704.44;4911691;29;20047;-72
2023/11/29 11:03:48;;;;;;;18.00;8.68;;;;;;;-2.87;64.13;99675.44;4940705;29;20523;-71
2023/11/29 11:06:23;;;;;;;16.13;8.18;;;;;;;-2.47;64.41;99682.22;4946673;29;21452;-73
2023/11/29 11:08:50;;;;;;;17.08;8.02;;;;;;;-2.65;63.83;99658.53;4962187;28;20465;-72
2023/11/29 11:11:39;;;;;;;15.48;8.30;;;;;;;-2.36;63.93;99695.41;4944992;28;20055;-74
2023/11/29 11:14:30;;;;;;;14.38;7.45;;;;;;;-2.65;64.04;99638.13;4926811;29;20066;-71
2023/11/29 11:17:06;;;;;;;16.08;7.78;;;;;;;-2.58;63.44;99655.44;4927742;29;20075;-72
2023/11/29 11:19:38;;;;;;;17.30;7.95;;;;;;;-2.69;63.77;99666.84;4938914;29;20183;-71
2023/11/29 11:22:26;;;;;;;15.10;7.47;;;;;;;-2.85;63.53;99661.09;4933672;29;20051;-72
2023/11/29 11:25:12;;;;;;;16.98;8.25;;;;;;;-2.65;64.18;99684.88;4956268;29;20054;-72
2023/11/29 11:27:51;;;;;;;17.65;8.40;;;;;;;-2.84;63.68;99680.66;4966254;28;20042;-72
2023/11/29 11:30:17;;;;;;;15.90;8.30;;;;;;;-2.61;64.30;99676.53;4948454;29;20047;-72
2023/11/29 11:32:47;;;;;;;16.35;8.30;;;;;;;-2.52;64.46;99665.00;4941970;29;20058;-70
2023/11/29 11:35:17;;;;;;;15.68;7.40;;;;;;;-2.41;64.08;99663.75;4967062;28;20051;-71
2023/11/29 11:37:47;;;;;;;18.67;8.38;;;;;;;-2.73;64.14;99612.34;4958681;28;20290;-70